sensor_id;sensor_type;location;lat;lon;timestamp;pressure;altitude;pressure_sealevel;temperature;humidity
18201;BME280;9226;47.858;9.594;2023-06-22T00:01:10;95162.88;;;22.23;71.45
18201;BME280;9226;47.858;9.594;2023-06-22T00:03:36;95150.59;;;22.21;71.66
18201;BME280;9226;47.858;9.594;2023-06-22T00:06:01;95166.00;;;22.27;70.75
18201;BME280;9226;47.858;9.594;2023-06-22T00:08:26;95169.50;;;22.14;72.49
18201;BME280;9226;47.858;9.594;2023-06-22T00:10:52;95163.47;;;22.12;72.21
18201;BME280;9226;47.858;9.594;2023-06-22T00:13:17;95160.13;;;22.10;72.25
18201;BME280;9226;47.858;9.594;2023-06-22T00:15:43;95159.50;;;22.08;72.16
18201;BME280;9226;47.858;9.594;2023-06-22T00:18:10;95168.03;;;22.12;71.82
18201;BME280;9226;47.858;9.594;2023-06-22T00:20:36;95172.63;;;22.11;72.19
18201;BME280;9226;47.858;9.594;2023-06-22T00:23:06;95162.41;;;22.07;72.50
18201;BME280;9226;47.858;9.594;2023-06-22T00:25:35;95167.19;;;22.04;72.81
18201;BME280;9226;47.858;9.594;2023-06-22T00:28:02;95166.75;;;22.01;72.63
18201;BME280;9226;47.858;9.594;2023-06-22T00:30:27;95163.84;;;21.96;73.44
18201;BME280;9226;47.858;9.594;2023-06-22T00:32:52;95157.81;;;21.94;73.01
18201;BME280;9226;47.858;9.594;2023-06-22T00:35:18;95164.25;;;21.99;72.53
18201;BME280;9226;47.858;9.594;2023-06-22T00:37:44;95168.84;;;21.99;72.81
18201;BME280;9226;47.858;9.594;2023-06-22T00:40:10;95163.84;;;21.96;73.15
18201;BME280;9226;47.858;9.594;2023-06-22T00:42:38;95152.19;;;21.89;73.59
18201;BME280;9226;47.858;9.594;2023-06-22T00:45:07;95153.84;;;21.90;73.41
18201;BME280;9226;47.858;9.594;2023-06-22T00:47:36;95158.41;;;21.89;73.86
18201;BME280;9226;47.858;9.594;2023-06-22T00:50:05;95148.00;;;21.79;74.01
18201;BME280;9226;47.858;9.594;2023-06-22T00:52:32;95139.50;;;21.82;73.59
18201;BME280;9226;47.858;9.594;2023-06-22T00:55:01;95152.94;;;21.76;74.31
18201;BME280;9226;47.858;9.594;2023-06-22T00:57:27;95144.19;;;21.67;74.87
18201;BME280;9226;47.858;9.594;2023-06-22T00:59:54;95140.47;;;21.68;74.71
18201;BME280;9226;47.858;9.594;2023-06-22T01:02:19;95154.59;;;21.70;74.46
18201;BME280;9226;47.858;9.594;2023-06-22T01:04:45;95153.81;;;21.76;73.71
18201;BME280;9226;47.858;9.594;2023-06-22T01:10:14;95140.47;;;21.68;74.86
18201;BME280;9226;47.858;9.594;2023-06-22T01:13:03;95152.06;;;21.62;75.38
18201;BME280;9226;47.858;9.594;2023-06-22T01:15:33;95139.59;;;21.61;74.79
18201;BME280;9226;47.858;9.594;2023-06-22T01:18:03;95147.09;;;21.59;74.93
18201;BME280;9226;47.858;9.594;2023-06-22T01:20:30;95152.47;;;21.59;74.86
18201;BME280;9226;47.858;9.594;2023-06-22T01:25:30;95151.19;;;21.55;75.32
18201;BME280;9226;47.858;9.594;2023-06-22T01:28:05;95150.56;;;21.53;75.86
18201;BME280;9226;47.858;9.594;2023-06-22T01:30:32;95147.41;;;21.49;75.67
18201;BME280;9226;47.858;9.594;2023-06-22T01:33:01;95147.81;;;21.46;76.02
18201;BME280;9226;47.858;9.594;2023-06-22T01:35:29;95149.00;;;21.37;76.81
18201;BME280;9226;47.858;9.594;2023-06-22T01:37:55;95143.81;;;21.35;76.78
18201;BME280;9226;47.858;9.594;2023-06-22T01:40:21;95135.22;;;21.25;77.66
18201;BME280;9226;47.858;9.594;2023-06-22T01:42:47;95135.81;;;21.20;78.12
18201;BME280;9226;47.858;9.594;2023-06-22T01:45:13;95141.19;;;21.13;78.55
18201;BME280;9226;47.858;9.594;2023-06-22T01:47:40;95152.59;;;21.15;78.42
18201;BME280;9226;47.858;9.594;2023-06-22T01:50:06;95147.22;;;21.15;78.43
18201;BME280;9226;47.858;9.594;2023-06-22T01:52:32;95153.00;;;21.12;78.75
18201;BME280;9226;47.858;9.594;2023-06-22T01:54:59;95156.97;;;21.17;77.82
18201;BME280;9226;47.858;9.594;2023-06-22T01:57:25;95154.91;;;21.19;78.08
18201;BME280;9226;47.858;9.594;2023-06-22T02:02:38;95158.00;;;21.15;78.45
18201;BME280;9226;47.858;9.594;2023-06-22T02:05:09;95163.84;;;21.19;77.84
18201;BME280;9226;47.858;9.594;2023-06-22T02:07:41;95167.97;;;21.15;78.04
18201;BME280;9226;47.858;9.594;2023-06-22T02:10:10;95157.13;;;21.08;78.99
18201;BME280;9226;47.858;9.594;2023-06-22T02:12:40;95161.69;;;21.08;78.51
18201;BME280;9226;47.858;9.594;2023-06-22T02:15:07;95163.94;;;21.04;78.93
18201;BME280;9226;47.858;9.594;2023-06-22T02:17:33;95164.19;;;21.09;78.50
18201;BME280;9226;47.858;9.594;2023-06-22T02:20:02;95162.69;;;21.00;79.44
18201;BME280;9226;47.858;9.594;2023-06-22T02:22:27;95171.94;;;20.91;80.25
18201;BME280;9226;47.858;9.594;2023-06-22T02:24:53;95179.00;;;20.92;79.90
18201;BME280;9226;47.858;9.594;2023-06-22T02:27:18;95178.38;;;20.90;79.88
18201;BME280;9226;47.858;9.594;2023-06-22T02:29:43;95187.34;;;20.97;79.27
18201;BME280;9226;47.858;9.594;2023-06-22T02:32:09;95179.00;;;20.92;79.31
18201;BME280;9226;47.858;9.594;2023-06-22T02:34:35;95177.34;;;20.91;79.72
18201;BME280;9226;47.858;9.594;2023-06-22T02:37:01;95169.84;;;20.86;80.32
18201;BME280;9226;47.858;9.594;2023-06-22T02:39:27;95170.22;;;20.83;80.09
18201;BME280;9226;47.858;9.594;2023-06-22T02:41:54;95175.41;;;20.85;80.33
18201;BME280;9226;47.858;9.594;2023-06-22T02:44:20;95175.41;;;20.85;79.86
18201;BME280;9226;47.858;9.594;2023-06-22T02:46:47;95191.34;;;20.80;80.50
18201;BME280;9226;47.858;9.594;2023-06-22T02:49:12;95191.75;;;20.76;80.45
18201;BME280;9226;47.858;9.594;2023-06-22T02:51:44;95189.81;;;20.70;80.99
18201;BME280;9226;47.858;9.594;2023-06-22T02:54:09;95194.75;;;20.67;81.01
18201;BME280;9226;47.858;9.594;2023-06-22T02:56:35;95192.13;;;20.73;80.08
18201;BME280;9226;47.858;9.594;2023-06-22T02:59:02;95195.47;;;20.75;80.13
18201;BME280;9226;47.858;9.594;2023-06-22T03:01:28;95197.06;;;20.70;80.32
18201;BME280;9226;47.858;9.594;2023-06-22T03:03:58;95197.44;;;20.67;80.68
18201;BME280;9226;47.858;9.594;2023-06-22T03:06:23;95195.59;;;20.67;80.68
18201;BME280;9226;47.858;9.594;2023-06-22T03:08:56;95191.59;;;20.63;80.62
18201;BME280;9226;47.858;9.594;2023-06-22T03:11:21;95187.91;;;20.64;80.45
18201;BME280;9226;47.858;9.594;2023-06-22T03:13:47;95189.66;;;20.57;81.65
18201;BME280;9226;47.858;9.594;2023-06-22T03:16:12;95191.34;;;20.58;81.21
18201;BME280;9226;47.858;9.594;2023-06-22T03:18:37;95186.31;;;20.55;81.11
18201;BME280;9226;47.858;9.594;2023-06-22T03:21:03;95188.63;;;20.58;80.88
18201;BME280;9226;47.858;9.594;2023-06-22T03:23:28;95181.56;;;20.57;80.96
18201;BME280;9226;47.858;9.594;2023-06-22T03:25:53;95186.31;;;20.55;81.08
18201;BME280;9226;47.858;9.594;2023-06-22T03:28:21;95182.72;;;20.48;81.54
18201;BME280;9226;47.858;9.594;2023-06-22T03:30:46;95180.88;;;20.48;81.55
18201;BME280;9226;47.858;9.594;2023-06-22T03:33:12;95187.72;;;20.51;81.01
18201;BME280;9226;47.858;9.594;2023-06-22T03:35:37;95182.81;;;20.54;80.74
18201;BME280;9226;47.858;9.594;2023-06-22T03:38:03;95182.22;;;20.59;80.43
18201;BME280;9226;47.858;9.594;2023-06-22T03:40:29;95185.38;;;20.63;79.83
18201;BME280;9226;47.858;9.594;2023-06-22T03:42:54;95182.88;;;20.61;80.46
18201;BME280;9226;47.858;9.594;2023-06-22T03:45:20;95179.34;;;20.60;80.76
18201;BME280;9226;47.858;9.594;2023-06-22T03:47:45;95173.97;;;20.60;80.46
18201;BME280;9226;47.858;9.594;2023-06-22T03:50:11;95175.16;;;20.58;80.96
18201;BME280;9226;47.858;9.594;2023-06-22T03:52:36;95173.38;;;20.65;80.46
18201;BME280;9226;47.858;9.594;2023-06-22T03:55:02;95177.75;;;20.66;80.38
18201;BME280;9226;47.858;9.594;2023-06-22T03:57:27;95170.97;;;20.70;80.18
18201;BME280;9226;47.858;9.594;2023-06-22T04:02:19;95173.69;;;20.77;80.12
18201;BME280;9226;47.858;9.594;2023-06-22T04:04:44;95181.00;;;20.83;79.90
18201;BME280;9226;47.858;9.594;2023-06-22T04:07:10;95181.44;;;20.87;79.84
18201;BME280;9226;47.858;9.594;2023-06-22T04:09:35;95176.16;;;21.00;79.38
18201;BME280;9226;47.858;9.594;2023-06-22T04:12:02;95180.78;;;21.06;79.28
18201;BME280;9226;47.858;9.594;2023-06-22T04:14:27;95180.44;;;21.16;78.90
18201;BME280;9226;47.858;9.594;2023-06-22T04:16:52;95173.84;;;21.25;78.69
18201;BME280;9226;47.858;9.594;2023-06-22T04:19:18;95172.59;;;21.28;78.44
18201;BME280;9226;47.858;9.594;2023-06-22T04:21:44;95174.31;;;21.36;78.14
18201;BME280;9226;47.858;9.594;2023-06-22T04:24:14;95169.66;;;21.51;77.71
18201;BME280;9226;47.858;9.594;2023-06-22T04:26:39;95171.38;;;21.59;77.67
18201;BME280;9226;47.858;9.594;2023-06-22T04:29:07;95175.59;;;21.75;76.92
18201;BME280;9226;47.858;9.594;2023-06-22T04:31:34;95178.13;;;21.83;76.60
18201;BME280;9226;47.858;9.594;2023-06-22T04:34:03;95179.59;;;21.85;76.20
18201;BME280;9226;47.858;9.594;2023-06-22T04:36:35;95176.72;;;21.94;76.00
18201;BME280;9226;47.858;9.594;2023-06-22T04:39:11;95175.03;;;21.93;75.89
18201;BME280;9226;47.858;9.594;2023-06-22T04:41:37;95173.03;;;22.08;75.07
18201;BME280;9226;47.858;9.594;2023-06-22T04:44:19;95165.31;;;22.05;75.01
18201;BME280;9226;47.858;9.594;2023-06-22T04:46:51;95164.75;;;22.23;75.00
18201;BME280;9226;47.858;9.594;2023-06-22T04:49:25;95164.41;;;22.39;74.48
18201;BME280;9226;47.858;9.594;2023-06-22T04:51:59;95150.28;;;22.64;73.57
18201;BME280;9226;47.858;9.594;2023-06-22T04:54:25;95153.41;;;22.88;72.84
18201;BME280;9226;47.858;9.594;2023-06-22T04:56:50;95148.63;;;23.23;71.91
18201;BME280;9226;47.858;9.594;2023-06-22T04:59:27;95167.88;;;23.60;70.82
18201;BME280;9226;47.858;9.594;2023-06-22T05:01:55;95144.72;;;23.78;69.06
18201;BME280;9226;47.858;9.594;2023-06-22T05:04:22;95143.63;;;23.99;68.13
18201;BME280;9226;47.858;9.594;2023-06-22T05:06:48;95161.28;;;24.47;67.47
18201;BME280;9226;47.858;9.594;2023-06-22T05:09:14;95167.75;;;24.78;65.67
18201;BME280;9226;47.858;9.594;2023-06-22T05:11:40;95150.44;;;24.79;64.11
18201;BME280;9226;47.858;9.594;2023-06-22T05:14:05;95147.00;;;24.90;64.33
18201;BME280;9226;47.858;9.594;2023-06-22T05:16:30;95158.22;;;25.44;63.75
18201;BME280;9226;47.858;9.594;2023-06-22T05:18:56;95149.78;;;25.34;62.15
18201;BME280;9226;47.858;9.594;2023-06-22T05:21:23;95146.38;;;25.75;62.19
18201;BME280;9226;47.858;9.594;2023-06-22T05:23:50;95147.22;;;26.13;61.12
18201;BME280;9226;47.858;9.594;2023-06-22T05:26:15;95149.72;;;26.57;60.25
18201;BME280;9226;47.858;9.594;2023-06-22T05:28:41;95144.59;;;26.67;59.92
18201;BME280;9226;47.858;9.594;2023-06-22T05:31:06;95134.25;;;27.11;58.54
18201;BME280;9226;47.858;9.594;2023-06-22T05:33:31;95137.41;;;27.67;57.32
18201;BME280;9226;47.858;9.594;2023-06-22T05:35:57;95158.38;;;27.90;56.34
18201;BME280;9226;47.858;9.594;2023-06-22T05:38:22;95148.13;;;28.21;54.60
18201;BME280;9226;47.858;9.594;2023-06-22T05:40:47;95133.53;;;27.51;53.95
18201;BME280;9226;47.858;9.594;2023-06-22T05:43:13;95151.13;;;26.78;56.84
18201;BME280;9226;47.858;9.594;2023-06-22T05:45:38;95155.69;;;27.07;56.72
18201;BME280;9226;47.858;9.594;2023-06-22T05:48:04;95152.72;;;27.80;55.13
18201;BME280;9226;47.858;9.594;2023-06-22T05:50:30;95158.81;;;28.11;54.00
18201;BME280;9226;47.858;9.594;2023-06-22T05:52:55;95144.88;;;27.72;53.53
18201;BME280;9226;47.858;9.594;2023-06-22T05:55:20;95147.50;;;28.48;52.86
18201;BME280;9226;47.858;9.594;2023-06-22T05:57:46;95152.59;;;29.02;50.71
18201;BME280;9226;47.858;9.594;2023-06-22T06:00:11;95150.94;;;29.35;50.59
18201;BME280;9226;47.858;9.594;2023-06-22T06:02:37;95149.53;;;29.71;49.73
18201;BME280;9226;47.858;9.594;2023-06-22T06:05:10;95163.59;;;30.41;48.19
18201;BME280;9226;47.858;9.594;2023-06-22T06:07:35;95166.34;;;30.69;46.98
18201;BME280;9226;47.858;9.594;2023-06-22T06:10:00;95148.63;;;30.76;45.41
18201;BME280;9226;47.858;9.594;2023-06-22T06:12:26;95144.75;;;30.45;45.90
18201;BME280;9226;47.858;9.594;2023-06-22T06:14:51;95144.00;;;30.05;46.40
18201;BME280;9226;47.858;9.594;2023-06-22T06:17:18;95157.50;;;30.89;45.66
18201;BME280;9226;47.858;9.594;2023-06-22T06:19:43;95148.50;;;31.58;45.08
18201;BME280;9226;47.858;9.594;2023-06-22T06:22:09;95142.66;;;31.92;43.88
18201;BME280;9226;47.858;9.594;2023-06-22T06:24:34;95139.63;;;32.57;42.66
18201;BME280;9226;47.858;9.594;2023-06-22T06:27:00;95150.25;;;32.33;41.74
18201;BME280;9226;47.858;9.594;2023-06-22T06:29:25;95148.19;;;32.81;42.18
18201;BME280;9226;47.858;9.594;2023-06-22T06:31:50;95142.44;;;33.54;41.10
18201;BME280;9226;47.858;9.594;2023-06-22T06:34:16;95137.09;;;34.04;40.61
18201;BME280;9226;47.858;9.594;2023-06-22T06:36:41;95137.38;;;34.63;38.90
18201;BME280;9226;47.858;9.594;2023-06-22T06:39:07;95143.03;;;34.92;38.17
18201;BME280;9226;47.858;9.594;2023-06-22T06:41:33;95137.72;;;34.56;37.16
18201;BME280;9226;47.858;9.594;2023-06-22T06:43:59;95148.47;;;35.37;37.19
18201;BME280;9226;47.858;9.594;2023-06-22T06:46:25;95145.34;;;36.02;36.65
18201;BME280;9226;47.858;9.594;2023-06-22T06:48:51;95138.31;;;35.91;36.52
18201;BME280;9226;47.858;9.594;2023-06-22T06:51:16;95142.19;;;36.38;35.80
18201;BME280;9226;47.858;9.594;2023-06-22T06:53:41;95138.53;;;36.43;35.36
18201;BME280;9226;47.858;9.594;2023-06-22T06:56:07;95143.47;;;36.65;34.54
18201;BME280;9226;47.858;9.594;2023-06-22T06:58:34;95141.53;;;36.66;34.98
18201;BME280;9226;47.858;9.594;2023-06-22T07:00:59;95134.00;;;37.09;34.47
18201;BME280;9226;47.858;9.594;2023-06-22T07:03:24;95131.38;;;37.51;33.47
18201;BME280;9226;47.858;9.594;2023-06-22T07:05:50;95129.97;;;37.54;33.12
18201;BME280;9226;47.858;9.594;2023-06-22T07:08:15;95127.66;;;37.75;32.85
18201;BME280;9226;47.858;9.594;2023-06-22T07:10:40;95132.53;;;38.25;32.69
18201;BME280;9226;47.858;9.594;2023-06-22T07:13:06;95133.09;;;37.94;32.37
18201;BME280;9226;47.858;9.594;2023-06-22T07:15:31;95136.09;;;38.53;32.02
18201;BME280;9226;47.858;9.594;2023-06-22T07:17:56;95129.53;;;38.63;31.37
18201;BME280;9226;47.858;9.594;2023-06-22T07:20:22;95140.25;;;38.92;31.04
18201;BME280;9226;47.858;9.594;2023-06-22T07:22:47;95152.91;;;38.70;31.14
18201;BME280;9226;47.858;9.594;2023-06-22T07:25:13;95142.88;;;37.91;31.44
18201;BME280;9226;47.858;9.594;2023-06-22T07:27:56;95142.50;;;38.26;30.86
18201;BME280;9226;47.858;9.594;2023-06-22T07:30:22;95132.53;;;38.39;30.81
18201;BME280;9226;47.858;9.594;2023-06-22T07:32:47;95129.94;;;38.42;31.36
18201;BME280;9226;47.858;9.594;2023-06-22T07:35:12;95136.59;;;38.69;30.39
18201;BME280;9226;47.858;9.594;2023-06-22T07:37:38;95133.69;;;38.74;30.87
18201;BME280;9226;47.858;9.594;2023-06-22T07:40:04;95134.16;;;38.90;30.54
18201;BME280;9226;47.858;9.594;2023-06-22T07:42:31;95130.72;;;38.84;30.49
18201;BME280;9226;47.858;9.594;2023-06-22T07:44:58;95133.69;;;36.54;33.25
18201;BME280;9226;47.858;9.594;2023-06-22T07:47:23;95124.09;;;36.27;33.63
18201;BME280;9226;47.858;9.594;2023-06-22T07:49:51;95125.22;;;37.54;32.90
18201;BME280;9226;47.858;9.594;2023-06-22T07:52:19;95126.66;;;38.40;32.05
18201;BME280;9226;47.858;9.594;2023-06-22T07:54:46;95138.38;;;38.23;31.88
18201;BME280;9226;47.858;9.594;2023-06-22T07:57:11;95133.16;;;38.22;31.45
18201;BME280;9226;47.858;9.594;2023-06-22T07:59:36;95130.13;;;38.60;31.38
18201;BME280;9226;47.858;9.594;2023-06-22T08:02:02;95122.84;;;39.00;30.61
18201;BME280;9226;47.858;9.594;2023-06-22T08:04:28;95122.22;;;37.70;31.50
18201;BME280;9226;47.858;9.594;2023-06-22T08:06:54;95129.94;;;38.28;31.59
18201;BME280;9226;47.858;9.594;2023-06-22T08:09:19;95122.63;;;36.35;33.30
18201;BME280;9226;47.858;9.594;2023-06-22T08:11:45;95114.06;;;36.12;34.34
18201;BME280;9226;47.858;9.594;2023-06-22T08:14:10;95111.16;;;37.37;33.18
18201;BME280;9226;47.858;9.594;2023-06-22T08:16:35;95111.66;;;37.06;33.37
18201;BME280;9226;47.858;9.594;2023-06-22T08:19:01;95122.81;;;36.63;33.57
18201;BME280;9226;47.858;9.594;2023-06-22T08:21:26;95119.56;;;37.12;32.94
18201;BME280;9226;47.858;9.594;2023-06-22T08:23:51;95116.84;;;38.20;32.18
18201;BME280;9226;47.858;9.594;2023-06-22T08:26:17;95121.72;;;38.51;32.06
18201;BME280;9226;47.858;9.594;2023-06-22T08:28:42;95123.53;;;38.69;32.36
18201;BME280;9226;47.858;9.594;2023-06-22T08:31:08;95130.97;;;38.97;30.98
18201;BME280;9226;47.858;9.594;2023-06-22T08:33:34;95126.41;;;39.15;30.73
18201;BME280;9226;47.858;9.594;2023-06-22T08:35:59;95128.50;;;39.32;30.92
18201;BME280;9226;47.858;9.594;2023-06-22T08:38:25;95141.03;;;39.29;30.89
18201;BME280;9226;47.858;9.594;2023-06-22T08:40:50;95159.41;;;39.02;30.77
18201;BME280;9226;47.858;9.594;2023-06-22T08:43:16;95181.59;;;39.02;30.93
18201;BME280;9226;47.858;9.594;2023-06-22T08:45:41;95199.66;;;39.14;30.20
18201;BME280;9226;47.858;9.594;2023-06-22T08:48:07;95184.06;;;39.04;30.17
18201;BME280;9226;47.858;9.594;2023-06-22T08:50:32;95192.78;;;38.75;30.93
18201;BME280;9226;47.858;9.594;2023-06-22T08:52:57;95193.50;;;38.39;31.31
18201;BME280;9226;47.858;9.594;2023-06-22T08:55:23;95200.88;;;38.15;31.90
18201;BME280;9226;47.858;9.594;2023-06-22T08:57:48;95194.78;;;38.13;32.24
18201;BME280;9226;47.858;9.594;2023-06-22T09:00:14;95204.81;;;37.95;32.52
18201;BME280;9226;47.858;9.594;2023-06-22T09:02:44;95199.66;;;38.35;32.06
18201;BME280;9226;47.858;9.594;2023-06-22T09:05:10;95191.94;;;38.32;31.69
18201;BME280;9226;47.858;9.594;2023-06-22T09:07:36;95194.91;;;38.50;31.66
18201;BME280;9226;47.858;9.594;2023-06-22T09:10:01;95205.03;;;38.96;31.53
18201;BME280;9226;47.858;9.594;2023-06-22T09:12:29;95187.41;;;38.78;31.79
18201;BME280;9226;47.858;9.594;2023-06-22T09:14:56;95193.94;;;38.96;30.89
18201;BME280;9226;47.858;9.594;2023-06-22T09:17:22;95192.94;;;38.92;31.17
18201;BME280;9226;47.858;9.594;2023-06-22T09:19:47;95188.22;;;38.79;30.72
18201;BME280;9226;47.858;9.594;2023-06-22T09:22:14;95196.94;;;38.86;31.05
18201;BME280;9226;47.858;9.594;2023-06-22T09:24:39;95197.06;;;38.25;31.95
18201;BME280;9226;47.858;9.594;2023-06-22T09:27:05;95203.44;;;38.40;32.09
18201;BME280;9226;47.858;9.594;2023-06-22T09:29:30;95208.50;;;38.05;32.45
18201;BME280;9226;47.858;9.594;2023-06-22T09:31:59;95207.28;;;38.11;32.79
18201;BME280;9226;47.858;9.594;2023-06-22T09:34:25;95194.16;;;38.03;32.48
18201;BME280;9226;47.858;9.594;2023-06-22T09:36:50;95208.16;;;38.39;32.16
18201;BME280;9226;47.858;9.594;2023-06-22T09:39:17;95207.47;;;38.33;32.29
18201;BME280;9226;47.858;9.594;2023-06-22T09:41:43;95197.69;;;38.50;33.30
18201;BME280;9226;47.858;9.594;2023-06-22T09:44:08;95204.66;;;38.61;32.32
18201;BME280;9226;47.858;9.594;2023-06-22T09:46:34;95191.72;;;38.84;31.92
18201;BME280;9226;47.858;9.594;2023-06-22T09:48:59;95186.28;;;38.51;32.90
18201;BME280;9226;47.858;9.594;2023-06-22T09:51:24;95179.44;;;38.63;32.75
18201;BME280;9226;47.858;9.594;2023-06-22T09:53:50;95182.47;;;38.61;32.94
18201;BME280;9226;47.858;9.594;2023-06-22T09:56:16;95172.13;;;38.25;32.22
18201;BME280;9226;47.858;9.594;2023-06-22T09:58:44;95166.38;;;38.63;31.99
18201;BME280;9226;47.858;9.594;2023-06-22T10:01:10;95160.47;;;36.78;33.84
18201;BME280;9226;47.858;9.594;2023-06-22T10:03:36;95155.72;;;37.16;34.40
18201;BME280;9226;47.858;9.594;2023-06-22T10:06:01;95149.53;;;37.43;34.64
18201;BME280;9226;47.858;9.594;2023-06-22T10:08:27;95139.16;;;37.49;34.03
18201;BME280;9226;47.858;9.594;2023-06-22T10:10:52;95142.53;;;37.79;33.64
18201;BME280;9226;47.858;9.594;2023-06-22T10:13:17;95136.91;;;37.51;33.79
18201;BME280;9226;47.858;9.594;2023-06-22T10:15:44;95149.78;;;37.09;34.24
18201;BME280;9226;47.858;9.594;2023-06-22T10:18:15;95135.50;;;36.83;34.80
18201;BME280;9226;47.858;9.594;2023-06-22T10:20:40;95134.69;;;36.82;34.41
18201;BME280;9226;47.858;9.594;2023-06-22T10:23:05;95135.97;;;36.28;35.55
18201;BME280;9226;47.858;9.594;2023-06-22T10:25:31;95118.34;;;35.99;35.92
18201;BME280;9226;47.858;9.594;2023-06-22T10:27:56;95132.88;;;35.57;36.92
18201;BME280;9226;47.858;9.594;2023-06-22T10:30:22;95136.50;;;35.52;37.27
18201;BME280;9226;47.858;9.594;2023-06-22T10:32:48;95130.00;;;35.96;36.41
18201;BME280;9226;47.858;9.594;2023-06-22T10:35:14;95123.91;;;36.18;36.10
18201;BME280;9226;47.858;9.594;2023-06-22T10:37:44;95130.59;;;35.88;36.14
18201;BME280;9226;47.858;9.594;2023-06-22T10:40:12;95124.50;;;35.38;36.69
18201;BME280;9226;47.858;9.594;2023-06-22T10:42:37;95121.97;;;35.41;37.47
18201;BME280;9226;47.858;9.594;2023-06-22T10:45:03;95119.00;;;35.62;37.09
18201;BME280;9226;47.858;9.594;2023-06-22T10:47:29;95114.69;;;36.04;36.89
18201;BME280;9226;47.858;9.594;2023-06-22T10:49:54;95119.16;;;35.46;37.11
18201;BME280;9226;47.858;9.594;2023-06-22T10:52:19;95109.69;;;35.28;37.72
18201;BME280;9226;47.858;9.594;2023-06-22T10:54:45;95114.38;;;34.93;38.03
18201;BME280;9226;47.858;9.594;2023-06-22T10:57:10;95105.38;;;35.46;37.55
18201;BME280;9226;47.858;9.594;2023-06-22T10:59:35;95107.47;;;35.55;36.57
18201;BME280;9226;47.858;9.594;2023-06-22T11:02:01;95111.56;;;35.33;37.68
18201;BME280;9226;47.858;9.594;2023-06-22T11:04:27;95115.53;;;35.17;37.47
18201;BME280;9226;47.858;9.594;2023-06-22T11:06:52;95113.84;;;34.36;38.79
18201;BME280;9226;47.858;9.594;2023-06-22T11:09:18;95107.31;;;34.17;39.63
18201;BME280;9226;47.858;9.594;2023-06-22T11:11:46;95110.94;;;34.67;38.71
18201;BME280;9226;47.858;9.594;2023-06-22T11:14:12;95110.47;;;34.94;37.47
18201;BME280;9226;47.858;9.594;2023-06-22T11:16:37;95108.66;;;34.79;37.57
18201;BME280;9226;47.858;9.594;2023-06-22T11:19:05;95118.78;;;35.24;36.80
18201;BME280;9226;47.858;9.594;2023-06-22T11:21:30;95121.03;;;35.17;37.53
18201;BME280;9226;47.858;9.594;2023-06-22T11:23:57;95118.28;;;35.51;36.88
18201;BME280;9226;47.858;9.594;2023-06-22T11:26:22;95117.56;;;35.40;36.29
18201;BME280;9226;47.858;9.594;2023-06-22T11:28:48;95113.47;;;35.38;37.21
18201;BME280;9226;47.858;9.594;2023-06-22T11:31:14;95105.28;;;35.22;37.32
18201;BME280;9226;47.858;9.594;2023-06-22T11:33:39;95115.59;;;35.11;36.83
18201;BME280;9226;47.858;9.594;2023-06-22T11:36:05;95099.75;;;35.57;36.47
18201;BME280;9226;47.858;9.594;2023-06-22T11:38:30;95096.50;;;35.49;36.02
18201;BME280;9226;47.858;9.594;2023-06-22T11:40:57;95103.97;;;35.73;36.16
18201;BME280;9226;47.858;9.594;2023-06-22T11:43:23;95099.84;;;35.76;36.18
18201;BME280;9226;47.858;9.594;2023-06-22T11:45:48;95100.19;;;35.40;36.46
18201;BME280;9226;47.858;9.594;2023-06-22T11:48:13;95100.38;;;35.48;36.58
18201;BME280;9226;47.858;9.594;2023-06-22T11:50:39;95095.50;;;35.64;36.60
18201;BME280;9226;47.858;9.594;2023-06-22T11:53:04;95082.13;;;35.53;36.86
18201;BME280;9226;47.858;9.594;2023-06-22T11:55:30;95085.41;;;35.55;36.88
18201;BME280;9226;47.858;9.594;2023-06-22T11:57:56;95085.25;;;35.70;37.18
18201;BME280;9226;47.858;9.594;2023-06-22T12:00:24;95083.59;;;35.69;36.76
18201;BME280;9226;47.858;9.594;2023-06-22T12:02:51;95091.41;;;35.38;37.00
18201;BME280;9226;47.858;9.594;2023-06-22T12:05:19;95095.72;;;35.44;36.93
18201;BME280;9226;47.858;9.594;2023-06-22T12:07:46;95093.19;;;35.18;37.06
18201;BME280;9226;47.858;9.594;2023-06-22T12:10:11;95088.47;;;35.19;37.16
18201;BME280;9226;47.858;9.594;2023-06-22T12:12:37;95095.38;;;35.21;37.00
18201;BME280;9226;47.858;9.594;2023-06-22T12:15:02;95094.78;;;34.95;37.35
18201;BME280;9226;47.858;9.594;2023-06-22T12:17:29;95094.94;;;34.74;37.83
18201;BME280;9226;47.858;9.594;2023-06-22T12:19:55;95088.94;;;34.57;37.92
18201;BME280;9226;47.858;9.594;2023-06-22T12:22:20;95086.50;;;34.00;39.28
18201;BME280;9226;47.858;9.594;2023-06-22T12:24:46;95092.00;;;34.00;38.53
18201;BME280;9226;47.858;9.594;2023-06-22T12:27:11;95092.06;;;33.80;38.82
18201;BME280;9226;47.858;9.594;2023-06-22T12:29:36;95077.78;;;33.62;39.64
18201;BME280;9226;47.858;9.594;2023-06-22T12:32:02;95079.16;;;33.60;39.15
18201;BME280;9226;47.858;9.594;2023-06-22T12:34:28;95084.44;;;33.30;39.53
18201;BME280;9226;47.858;9.594;2023-06-22T12:36:53;95086.09;;;33.11;39.62
18201;BME280;9226;47.858;9.594;2023-06-22T12:39:20;95081.16;;;33.28;39.68
18201;BME280;9226;47.858;9.594;2023-06-22T12:41:45;95083.34;;;33.16;39.89
18201;BME280;9226;47.858;9.594;2023-06-22T12:44:11;95082.28;;;33.07;39.96
18201;BME280;9226;47.858;9.594;2023-06-22T12:46:36;95080.06;;;33.09;40.19
18201;BME280;9226;47.858;9.594;2023-06-22T12:49:04;95085.56;;;33.14;40.50
18201;BME280;9226;47.858;9.594;2023-06-22T12:51:29;95083.91;;;33.33;40.65
18201;BME280;9226;47.858;9.594;2023-06-22T12:53:55;95080.91;;;33.25;40.57
18201;BME280;9226;47.858;9.594;2023-06-22T12:56:20;95085.00;;;33.48;40.80
18201;BME280;9226;47.858;9.594;2023-06-22T12:58:46;95084.13;;;33.52;39.26
18201;BME280;9226;47.858;9.594;2023-06-22T13:01:11;95078.88;;;33.61;39.88
18201;BME280;9226;47.858;9.594;2023-06-22T13:03:36;95083.56;;;33.71;39.51
18201;BME280;9226;47.858;9.594;2023-06-22T13:06:02;95080.47;;;33.88;39.41
18201;BME280;9226;47.858;9.594;2023-06-22T13:08:29;95074.94;;;33.93;39.28
18201;BME280;9226;47.858;9.594;2023-06-22T13:10:54;95083.47;;;33.97;39.57
18201;BME280;9226;47.858;9.594;2023-06-22T13:13:23;95082.09;;;33.94;39.10
18201;BME280;9226;47.858;9.594;2023-06-22T13:15:50;95074.94;;;33.93;38.69